Time;durP1;ratioP1;P1;durP2;ratioP2;P2;SDS_P1;SDS_P2;PMS_P1;PMS_P2;Temp;Humidity;BMP_temperature;BMP_pressure;BME280_temperature;BME280_humidity;BME280_pressure;Samples;Min_cycle;Max_cycle;Signal;HPM_P1;HPM_P2
2021/06/06 00:02:51;;;;;;;31.98;28.65;;;;;;;;;;5220873;27;20618;-94
2021/06/06 00:05:56;;;;;;;35.30;30.52;;;;;;;;;;5215537;27;20073;-95
2021/06/06 00:08:50;;;;;;;34.25;30.37;;;;;;;;;;5137345;27;20026;-96
2021/06/06 00:11:39;;;;;;;;;;;;;;;;;;5209414;27;20384;-94
2021/06/06 00:14:39;;;;;;;32.83;29.27;;;;;;;;;;5218343;27;19980;-95
2021/06/06 00:17:15;;;;;;;33.42;29.73;;;;;;;;;;5217145;27;20048;-95
2021/06/06 00:19:50;;;;;;;32.55;29.45;;;;;;;;;;5213821;27;20079;-94
2021/06/06 00:22:35;;;;;;;36.38;32.60;;;;;;;;;;5216595;27;20711;-96
2021/06/06 00:25:19;;;;;;;37.33;33.53;;;;;;;;;;5215980;27;20044;-96
2021/06/06 00:28:43;;;;;;;;;;;;;;;;;;5198559;27;20035;-95
2021/06/06 00:31:17;;;;;;;37.65;31.55;;;;;;;;;;5217509;27;19956;-94
2021/06/06 00:33:59;;;;;;;30.20;27.15;;;;;;;;;;5218202;27;20038;-96
2021/06/06 00:36:43;;;;;;;30.92;28.08;;;;;;;;;;5216479;27;20018;-96
2021/06/06 00:39:27;;;;;;;32.05;28.65;;;;;;;;;;5217912;27;20034;-95
2021/06/06 00:42:20;;;;;;;30.98;27.92;;;;;;;;;;5219611;27;20450;-95
2021/06/06 00:44:59;;;;;;;;;;;;;;;;;;5216408;27;20030;-95
2021/06/06 00:47:45;;;;;;;32.13;28.98;;;;;;;;;;5218400;27;20293;-96
2021/06/06 00:50:34;;;;;;;34.10;29.60;;;;;;;;;;5215337;27;20415;-96
2021/06/06 00:53:23;;;;;;;32.80;29.30;;;;;;;;;;5213848;27;20084;-94
2021/06/06 00:56:07;;;;;;;32.53;28.00;;;;;;;;;;5215055;27;20018;-96
2021/06/06 00:58:43;;;;;;;35.65;29.60;;;;;;;;;;5214593;27;20101;-94
2021/06/06 01:01:25;;;;;;;31.33;27.55;;;;;;;;;;5217119;27;20336;-95
2021/06/06 01:03:59;;;;;;;33.97;28.20;;;;;;;;;;5215984;27;20088;-96
2021/06/06 01:06:42;;;;;;;31.85;28.67;;;;;;;;;;5215455;27;20061;-94
2021/06/06 01:09:26;;;;;;;35.67;29.90;;;;;;;;;;5215745;27;20066;-96
2021/06/06 01:12:13;;;;;;;34.75;30.75;;;;;;;;;;5216645;27;20034;-95
2021/06/06 01:15:02;;;;;;;28.98;26.33;;;;;;;;;;5215591;27;20030;-95
2021/06/06 01:17:49;;;;;;;29.50;26.35;;;;;;;;;;5212655;27;20510;-95
2021/06/06 01:20:37;;;;;;;30.60;27.55;;;;;;;;;;5213673;27;20029;-96
2021/06/06 01:23:32;;;;;;;32.60;28.87;;;;;;;;;;5213688;27;20058;-94
2021/06/06 01:26:10;;;;;;;30.70;27.67;;;;;;;;;;5212891;27;20034;-93
2021/06/06 01:28:53;;;;;;;33.78;27.95;;;;;;;;;;5215120;27;20635;-95
2021/06/06 01:31:28;;;;;;;29.08;26.27;;;;;;;;;;5213454;27;20082;-96
2021/06/06 01:33:57;;;;;;;;;;;;;;;;;;5213709;27;20030;-95
2021/06/06 01:36:36;;;;;;;29.02;26.02;;;;;;;;;;5211576;27;19985;-94
2021/06/06 01:39:15;;;;;;;29.80;26.02;;;;;;;;;;5212505;27;20040;-94
2021/06/06 01:41:48;;;;;;;29.02;26.23;;;;;;;;;;5211601;27;20490;-94
2021/06/06 01:44:25;;;;;;;29.67;26.60;;;;;;;;;;5213516;27;20742;-93
2021/06/06 01:47:07;;;;;;;28.98;25.88;;;;;;;;;;5214985;27;20333;-96
2021/06/06 01:49:55;;;;;;;31.37;28.23;;;;;;;;;;5217048;27;20470;-95
2021/06/06 01:52:27;;;;;;;37.50;28.25;;;;;;;;;;5214610;27;20726;-95
2021/06/06 01:55:06;;;;;;;28.65;25.77;;;;;;;;;;5215649;27;20098;-96
2021/06/06 01:57:41;;;;;;;26.25;23.75;;;;;;;;;;5215051;27;20040;-95
2021/06/06 02:00:30;;;;;;;26.27;23.75;;;;;;;;;;5231241;27;20041;-94
2021/06/06 02:03:13;;;;;;;27.00;24.30;;;;;;;;;;5214560;27;20030;-95
2021/06/06 02:05:57;;;;;;;28.83;26.17;;;;;;;;;;5216193;27;20081;-94
2021/06/06 02:08:38;;;;;;;29.27;26.27;;;;;;;;;;5216133;27;20046;-95
2021/06/06 02:11:13;;;;;;;32.72;25.95;;;;;;;;;;5211748;27;20447;-93
2021/06/06 02:13:50;;;;;;;29.02;26.05;;;;;;;;;;5217321;27;20335;-94
2021/06/06 02:16:25;;;;;;;29.05;25.25;;;;;;;;;;5216404;27;20065;-94
2021/06/06 02:19:09;;;;;;;28.45;25.98;;;;;;;;;;5214934;27;20037;-94
2021/06/06 02:21:43;;;;;;;29.92;26.02;;;;;;;;;;5232634;27;20556;-94
2021/06/06 02:24:20;;;;;;;28.38;25.83;;;;;;;;;;5232535;27;20032;-95
2021/06/06 02:26:59;;;;;;;28.80;26.17;;;;;;;;;;5219367;27;20053;-94
2021/06/06 02:30:01;;;;;;;30.50;27.25;;;;;;;;;;5215344;27;20038;-95
2021/06/06 02:32:32;;;;;;;29.25;26.42;;;;;;;;;;5202899;27;20034;-96
2021/06/06 02:35:15;;;;;;;28.23;25.55;;;;;;;;;;5215741;27;20157;-94
2021/06/06 02:38:01;;;;;;;22.90;21.00;;;;;;;;;;5216888;27;20030;-94
2021/06/06 02:40:35;;;;;;;23.52;21.30;;;;;;;;;;5215346;27;20778;-94
2021/06/06 02:43:08;;;;;;;27.85;25.00;;;;;;;;;;5216541;27;20068;-95
2021/06/06 02:45:41;;;;;;;26.33;23.90;;;;;;;;;;5215050;27;20069;-95
2021/06/06 02:48:17;;;;;;;25.85;23.58;;;;;;;;;;5213660;27;20031;-93
2021/06/06 02:50:49;;;;;;;29.08;23.92;;;;;;;;;;5215813;27;20444;-95
2021/06/06 02:53:21;;;;;;;29.77;26.35;;;;;;;;;;5214964;27;20046;-93
2021/06/06 02:55:59;;;;;;;29.20;26.15;;;;;;;;;;5215428;27;20030;-96
2021/06/06 02:58:42;;;;;;;28.75;25.90;;;;;;;;;;5215360;27;20429;-95
2021/06/06 03:01:15;;;;;;;29.52;26.52;;;;;;;;;;5213816;27;20068;-94
2021/06/06 03:03:45;;;;;;;28.12;25.12;;;;;;;;;;5215307;27;20044;-95
2021/06/06 03:06:41;;;;;;;30.80;25.50;;;;;;;;;;5217809;27;20031;-95
2021/06/06 03:09:11;;;;;;;32.65;25.20;;;;;;;;;;5212445;27;20668;-94
2021/06/06 03:12:07;;;;;;;30.50;24.90;;;;;;;;;;5204338;27;20100;-93
2021/06/06 03:14:49;;;;;;;27.77;24.77;;;;;;;;;;5217525;27;20030;-96
2021/06/06 03:17:27;;;;;;;28.80;25.62;;;;;;;;;;5216494;27;20037;-93
2021/06/06 03:20:06;;;;;;;29.70;23.58;;;;;;;;;;5215112;27;20073;-94
2021/06/06 03:22:45;;;;;;;27.73;24.08;;;;;;;;;;5216518;27;20022;-94
2021/06/06 03:25:42;;;;;;;27.37;24.23;;;;;;;;;;5218039;27;20036;-95
2021/06/06 03:28:15;;;;;;;27.45;24.77;;;;;;;;;;5215470;27;20030;-95
2021/06/06 03:30:51;;;;;;;29.75;24.00;;;;;;;;;;5214490;27;20060;-94
2021/06/06 03:33:34;;;;;;;26.52;23.58;;;;;;;;;;5216975;27;20046;-95
2021/06/06 03:36:12;;;;;;;26.35;23.77;;;;;;;;;;5216129;27;20663;-95
2021/06/06 03:38:40;;;;;;;27.52;24.67;;;;;;;;;;5213532;27;20068;-94
2021/06/06 03:41:14;;;;;;;28.15;24.85;;;;;;;;;;5213609;27;20308;-95
2021/06/06 03:43:58;;;;;;;30.98;25.98;;;;;;;;;;5217396;27;20023;-95
2021/06/06 03:46:33;;;;;;;38.92;30.23;;;;;;;;;;5214179;27;20033;-95
2021/06/06 03:49:06;;;;;;;32.92;29.50;;;;;;;;;;5213270;27;20414;-94
2021/06/06 03:51:36;;;;;;;33.78;30.25;;;;;;;;;;5215796;27;20034;-94
2021/06/06 03:54:25;;;;;;;37.67;29.05;;;;;;;;;;5209295;27;20426;-96
2021/06/06 03:57:03;;;;;;;27.62;24.60;;;;;;;;;;5215176;27;20035;-94
2021/06/06 03:59:36;;;;;;;28.30;25.50;;;;;;;;;;5212014;27;20038;-95
2021/06/06 04:02:09;;;;;;;30.92;24.98;;;;;;;;;;5214565;27;20458;-94
2021/06/06 04:04:46;;;;;;;27.62;23.77;;;;;;;;;;5216402;27;20090;-96
2021/06/06 04:07:22;;;;;;;27.83;24.98;;;;;;;;;;5215546;27;20031;-95
2021/06/06 04:09:57;;;;;;;26.25;23.90;;;;;;;;;;5215591;27;20036;-95
2021/06/06 04:12:39;;;;;;;27.17;24.40;;;;;;;;;;5216768;27;20035;-95
2021/06/06 04:15:23;;;;;;;28.67;24.35;;;;;;;;;;5216070;27;20018;-94
2021/06/06 04:18:19;;;;;;;30.85;24.50;;;;;;;;;;5205190;27;20556;-96
2021/06/06 04:20:50;;;;;;;29.08;24.73;;;;;;;;;;5231492;27;20049;-94
2021/06/06 04:23:32;;;;;;;31.77;28.25;;;;;;;;;;5216472;27;20072;-93
2021/06/06 04:26:06;;;;;;;29.60;26.80;;;;;;;;;;5213993;27;20316;-93
2021/06/06 04:28:38;;;;;;;29.42;26.62;;;;;;;;;;5212356;27;20021;-96
2021/06/06 04:31:14;;;;;;;30.42;26.15;;;;;;;;;;5216905;27;20027;-95
2021/06/06 04:33:43;;;;;;;33.40;26.10;;;;;;;;;;5214984;27;20026;-96
2021/06/06 04:36:19;;;;;;;28.25;25.20;;;;;;;;;;5214646;27;20418;-93
2021/06/06 04:38:52;;;;;;;25.27;20.50;;;;;;;;;;5212848;27;20030;-96
2021/06/06 04:41:27;;;;;;;22.20;20.00;;;;;;;;;;5216249;27;20030;-95
2021/06/06 04:44:02;;;;;;;23.87;21.10;;;;;;;;;;5216533;27;20085;-94
2021/06/06 04:46:37;;;;;;;23.62;21.30;;;;;;;;;;5215162;27;20351;-92
2021/06/06 04:49:12;;;;;;;23.42;20.23;;;;;;;;;;5214777;27;20061;-94
2021/06/06 04:51:52;;;;;;;26.60;22.42;;;;;;;;;;5216463;27;20088;-94
2021/06/06 04:54:31;;;;;;;31.48;22.58;;;;;;;;;;5213462;27;20027;-96
2021/06/06 04:57:07;;;;;;;26.67;22.15;;;;;;;;;;5213351;27;20399;-94
2021/06/06 04:59:39;;;;;;;23.67;21.52;;;;;;;;;;5215668;27;20027;-94
2021/06/06 05:02:10;;;;;;;27.15;24.40;;;;;;;;;;5216050;27;20423;-95
2021/06/06 05:04:43;;;;;;;28.65;24.87;;;;;;;;;;5217429;27;20331;-94
2021/06/06 05:07:23;;;;;;;28.85;25.75;;;;;;;;;;5215015;27;20025;-95
2021/06/06 05:09:55;;;;;;;29.35;26.23;;;;;;;;;;5216735;27;20033;-94
2021/06/06 05:12:38;;;;;;;30.40;26.02;;;;;;;;;;5232898;27;20037;-94
2021/06/06 05:15:11;;;;;;;28.12;25.15;;;;;;;;;;5214684;27;20035;-94
2021/06/06 05:17:44;;;;;;;30.90;25.20;;;;;;;;;;5214748;27;20018;-95
2021/06/06 05:20:20;;;;;;;31.05;25.20;;;;;;;;;;5214111;27;20038;-94
2021/06/06 05:22:53;;;;;;;29.37;25.02;;;;;;;;;;5216457;27;20076;-94
2021/06/06 05:25:22;;;;;;;29.15;25.20;;;;;;;;;;5214954;27;20077;-95
2021/06/06 05:27:54;;;;;;;29.67;25.12;;;;;;;;;;5214688;27;20045;-94
2021/06/06 05:30:32;;;;;;;29.35;26.27;;;;;;;;;;5233866;27;20093;-94
2021/06/06 05:33:12;;;;;;;27.98;25.17;;;;;;;;;;5233761;27;20587;-94
2021/06/06 05:35:44;;;;;;;28.58;24.85;;;;;;;;;;5216971;27;20040;-93
2021/06/06 05:38:20;;;;;;;28.15;25.60;;;;;;;;;;5216230;27;20041;-96
2021/06/06 05:40:52;;;;;;;30.60;26.55;;;;;;;;;;5214713;27;20057;-94
2021/06/06 05:43:26;;;;;;;30.98;26.75;;;;;;;;;;5213736;27;20032;-93
2021/06/06 05:45:57;;;;;;;28.50;25.70;;;;;;;;;;5232293;27;20060;-95
2021/06/06 05:48:32;;;;;;;31.12;27.67;;;;;;;;;;5216124;27;20736;-93
2021/06/06 05:51:03;;;;;;;32.78;28.70;;;;;;;;;;5214383;27;20033;-94
2021/06/06 05:53:37;;;;;;;32.63;29.50;;;;;;;;;;5215081;27;20044;-94
2021/06/06 05:56:07;;;;;;;32.65;29.23;;;;;;;;;;5213952;27;20034;-93
2021/06/06 05:58:39;;;;;;;32.63;28.05;;;;;;;;;;5215363;27;20031;-95
2021/06/06 06:01:16;;;;;;;29.87;27.30;;;;;;;;;;5213712;27;20070;-94
2021/06/06 06:03:48;;;;;;;29.12;26.40;;;;;;;;;;5213249;27;20073;-93
2021/06/06 06:06:23;;;;;;;29.20;26.23;;;;;;;;;;5230472;27;20031;-96
2021/06/06 06:08:56;;;;;;;30.20;27.05;;;;;;;;;;5213100;27;20380;-94
2021/06/06 06:11:29;;;;;;;;;;;;;;;;;;5232014;27;20056;-94
2021/06/06 06:14:06;;;;;;;30.62;26.92;;;;;;;;;;5213976;27;19993;-94
2021/06/06 06:16:37;;;;;;;30.27;27.20;;;;;;;;;;5214772;27;20038;-95
2021/06/06 06:19:20;;;;;;;29.73;26.75;;;;;;;;;;5216819;27;20313;-96
2021/06/06 06:21:55;;;;;;;28.98;25.90;;;;;;;;;;5232388;27;20414;-96
2021/06/06 06:24:35;;;;;;;;;;;;;;;;;;;;;
2021/06/06 06:27:07;;;;;;;30.12;26.92;;;;;;;;;;5232144;27;20366;-94
2021/06/06 06:29:41;;;;;;;31.87;26.33;;;;;;;;;;5216454;27;20082;-93
2021/06/06 06:32:30;;;;;;;30.90;27.65;;;;;;;;;;5216321;27;20034;-94
2021/06/06 06:35:08;;;;;;;29.98;27.20;;;;;;;;;;5215679;27;20026;-96
2021/06/06 06:37:41;;;;;;;;;;;;;;;;;;5217405;27;20034;-95
2021/06/06 06:40:32;;;;;;;28.33;25.37;;;;;;;;;;5219270;27;20349;-96
2021/06/06 06:43:14;;;;;;;26.60;23.73;;;;;;;;;;5218495;27;20096;-94
2021/06/06 06:45:58;;;;;;;23.67;21.42;;;;;;;;;;5218831;27;20057;-95
2021/06/06 06:48:40;;;;;;;20.25;18.45;;;;;;;;;;5218348;27;20093;-95
2021/06/06 06:54:31;;;;;;;18.85;16.67;;;;;;;;;;5231594;27;20027;-94
2021/06/06 06:57:17;;;;;;;19.35;17.42;;;;;;;;;;5217137;27;20065;-95
2021/06/06 07:00:02;;;;;;;18.37;16.50;;;;;;;;;;5217270;27;20036;-94
2021/06/06 07:02:35;;;;;;;23.05;16.05;;;;;;;;;;5218492;27;20044;-94
2021/06/06 07:05:28;;;;;;;24.55;17.58;;;;;;;;;;5218438;27;20042;-93
2021/06/06 07:07:58;;;;;;;20.90;16.15;;;;;;;;;;5214513;27;20034;-95
2021/06/06 07:10:46;;;;;;;17.83;16.02;;;;;;;;;;5216502;27;20042;-96
2021/06/06 07:13:30;;;;;;;30.08;16.25;;;;;;;;;;5216197;27;20116;-94
2021/06/06 07:16:04;;;;;;;19.45;14.55;;;;;;;;;;5215578;27;20053;-95
2021/06/06 07:18:41;;;;;;;18.37;10.98;;;;;;;;;;5216174;27;20384;-94
2021/06/06 07:21:16;;;;;;;16.83;11.30;;;;;;;;;;5213880;27;20037;-95
2021/06/06 07:23:47;;;;;;;15.93;9.13;;;;;;;;;;5214973;27;20154;-95
2021/06/06 07:26:23;;;;;;;16.00;9.27;;;;;;;;;;5215788;27;20048;-95
2021/06/06 07:28:59;;;;;;;16.67;9.85;;;;;;;;;;5214065;27;20034;-95
2021/06/06 07:31:30;;;;;;;19.25;9.73;;;;;;;;;;5232331;27;20026;-95
2021/06/06 07:34:13;;;;;;;12.05;9.80;;;;;;;;;;5216705;27;20037;-94
2021/06/06 07:36:45;;;;;;;17.55;12.20;;;;;;;;;;5215857;27;20022;-95
2021/06/06 07:39:33;;;;;;;20.20;12.32;;;;;;;;;;5216123;27;20031;-93
2021/06/06 07:42:03;;;;;;;18.35;14.82;;;;;;;;;;5214705;27;20030;-95
2021/06/06 07:44:34;;;;;;;22.30;14.48;;;;;;;;;;5215557;27;20035;-93
2021/06/06 07:47:06;;;;;;;16.70;11.18;;;;;;;;;;5213423;27;20030;-95
2021/06/06 07:49:39;;;;;;;19.42;10.52;;;;;;;;;;5231268;27;20068;-95
2021/06/06 07:52:08;;;;;;;16.30;8.43;;;;;;;;;;5215314;27;20108;-96
2021/06/06 07:54:47;;;;;;;11.80;6.70;;;;;;;;;;5215406;27;20072;-96
2021/06/06 07:57:18;;;;;;;12.95;5.18;;;;;;;;;;5215748;27;20037;-94
2021/06/06 07:59:52;;;;;;;18.70;6.07;;;;;;;;;;5214608;27;20038;-94
2021/06/06 08:02:24;;;;;;;10.98;4.55;;;;;;;;;;5215666;27;20053;-95
2021/06/06 08:05:02;;;;;;;18.60;5.43;;;;;;;;;;5214644;27;20034;-95
2021/06/06 08:07:40;;;;;;;13.43;3.75;;;;;;;;;;5216877;27;20076;-95
2021/06/06 08:10:16;;;;;;;14.05;3.00;;;;;;;;;;5213244;27;20334;-96
2021/06/06 08:12:53;;;;;;;15.07;3.10;;;;;;;;;;5213573;27;20036;-96
2021/06/06 08:15:41;;;;;;;12.40;3.35;;;;;;;;;;5214175;27;20029;-95
2021/06/06 08:18:36;;;;;;;32.03;3.78;;;;;;;;;;5215413;27;20502;-94
2021/06/06 08:21:05;;;;;;;;;;;;;;;;;;5212464;27;20522;-95
2021/06/06 08:23:34;;;;;;;11.63;3.22;;;;;;;;;;5212649;27;20689;-95
2021/06/06 08:26:17;;;;;;;11.70;2.72;;;;;;;;;;5215677;27;20057;-96
2021/06/06 08:29:04;;;;;;;12.23;3.05;;;;;;;;;;5215535;27;20044;-94
2021/06/06 08:31:36;;;;;;;12.52;3.58;;;;;;;;;;5214480;27;20034;-96
2021/06/06 08:34:26;;;;;;;17.60;2.80;;;;;;;;;;5235637;27;20018;-95
2021/06/06 08:37:07;;;;;;;11.27;2.72;;;;;;;;;;5217673;27;20037;-95
2021/06/06 08:39:53;;;;;;;12.43;2.83;;;;;;;;;;5220119;27;20418;-95
2021/06/06 08:42:53;;;;;;;14.80;3.20;;;;;;;;;;5222829;27;20066;-96
2021/06/06 08:46:06;;;;;;;14.35;2.60;;;;;;;;;;5222182;27;20033;-96
2021/06/06 08:48:49;;;;;;;9.80;2.33;;;;;;;;;;5222001;27;20031;-96
2021/06/06 08:51:51;;;;;;;15.10;2.72;;;;;;;;;;5220863;27;20101;-94
2021/06/06 08:54:47;;;;;;;13.02;2.53;;;;;;;;;;5221891;27;20029;-95
2021/06/06 08:57:37;;;;;;;12.95;2.80;;;;;;;;;;5219759;27;20033;-96
2021/06/06 09:00:46;;;;;;;9.98;2.58;;;;;;;;;;5222184;27;20073;-95
2021/06/06 09:03:25;;;;;;;13.75;3.03;;;;;;;;;;5239171;27;20030;-95
2021/06/06 09:06:16;;;;;;;15.05;2.67;;;;;;;;;;5218045;27;20038;-96
2021/06/06 09:08:49;;;;;;;11.27;2.35;;;;;;;;;;5219623;27;20023;-96
2021/06/06 09:11:28;;;;;;;10.68;2.40;;;;;;;;;;5219063;27;20070;-96
2021/06/06 09:14:00;;;;;;;13.25;2.67;;;;;;;;;;5216103;27;20056;-95
2021/06/06 09:16:59;;;;;;;11.80;2.85;;;;;;;;;;5220820;27;20378;-96
2021/06/06 09:19:46;;;;;;;13.00;3.10;;;;;;;;;;5222055;27;20866;-95
2021/06/06 09:22:17;;;;;;;13.05;2.47;;;;;;;;;;5234922;27;20065;-96
2021/06/06 09:24:48;;;;;;;10.68;2.50;;;;;;;;;;5217572;27;20038;-94
2021/06/06 09:27:23;;;;;;;9.63;2.20;;;;;;;;;;5235635;27;20018;-95
2021/06/06 09:30:00;;;;;;;10.30;2.62;;;;;;;;;;5218844;27;20105;-94
2021/06/06 09:32:30;;;;;;;12.43;2.78;;;;;;;;;;5234422;27;20030;-96
2021/06/06 09:35:10;;;;;;;17.87;2.85;;;;;;;;;;5215651;27;20316;-96
2021/06/06 09:37:46;;;;;;;14.63;2.97;;;;;;;;;;5216236;27;20061;-94
2021/06/06 09:40:26;;;;;;;12.70;2.72;;;;;;;;;;5215329;27;20070;-95
2021/06/06 09:42:55;;;;;;;31.42;4.10;;;;;;;;;;5215925;27;20037;-94
2021/06/06 09:45:34;;;;;;;8.50;2.20;;;;;;;;;;5217218;27;20026;-96
2021/06/06 09:48:27;;;;;;;11.45;2.37;;;;;;;;;;5237448;27;20096;-95
2021/06/06 09:51:15;;;;;;;9.03;2.37;;;;;;;;;;5236104;27;20084;-96
2021/06/06 09:54:13;;;;;;;8.05;2.40;;;;;;;;;;5225013;27;20101;-96
2021/06/06 09:56:56;;;;;;;9.88;2.70;;;;;;;;;;5224218;27;20101;-96
2021/06/06 09:59:37;;;;;;;10.60;2.50;;;;;;;;;;5223560;27;20073;-95
2021/06/06 10:02:11;;;;;;;11.73;2.95;;;;;;;;;;5218474;27;20019;-94
2021/06/06 10:04:45;;;;;;;30.23;4.62;;;;;;;;;;5217937;27;20030;-96
2021/06/06 10:07:28;;;;;;;18.00;3.12;;;;;;;;;;5236525;27;20026;-96
2021/06/06 10:10:07;;;;;;;17.37;3.03;;;;;;;;;;5215849;27;20022;-96
2021/06/06 10:12:57;;;;;;;;;;;;;;;;;;5220751;27;20061;-96
2021/06/06 10:15:47;;;;;;;21.65;3.83;;;;;;;;;;5218534;27;20663;-95
2021/06/06 10:18:23;;;;;;;11.02;2.50;;;;;;;;;;5218326;27;20026;-96
2021/06/06 10:21:04;;;;;;;11.30;2.80;;;;;;;;;;5218080;27;20747;-95
2021/06/06 10:23:35;;;;;;;13.90;2.87;;;;;;;;;;5217870;27;20026;-96
2021/06/06 10:26:23;;;;;;;12.70;2.50;;;;;;;;;;5220186;27;20462;-96
2021/06/06 10:28:54;;;;;;;9.50;2.25;;;;;;;;;;5220139;27;20029;-95
2021/06/06 10:31:43;;;;;;;11.93;3.12;;;;;;;;;;5221154;27;20073;-96
2021/06/06 10:34:50;;;;;;;9.95;2.50;;;;;;;;;;5219037;27;20022;-94
2021/06/06 10:37:19;;;;;;;12.98;2.55;;;;;;;;;;5203044;27;20019;-93
2021/06/06 10:39:57;;;;;;;14.23;2.72;;;;;;;;;;5218409;27;20060;-93
2021/06/06 10:42:49;;;;;;;9.77;2.90;;;;;;;;;;5218094;27;20019;-94
2021/06/06 10:45:29;;;;;;;13.68;3.00;;;;;;;;;;5217633;27;20021;-94
2021/06/06 10:48:17;;;;;;;11.82;3.03;;;;;;;;;;5218258;27;20036;-94
2021/06/06 10:50:52;;;;;;;6.87;2.42;;;;;;;;;;5217488;27;20375;-94
2021/06/06 10:53:31;;;;;;;16.25;3.45;;;;;;;;;;5217400;27;20625;-94
2021/06/06 10:56:13;;;;;;;21.13;3.13;;;;;;;;;;5219406;27;20041;-96
2021/06/06 10:58:50;;;;;;;15.95;3.05;;;;;;;;;;5217420;27;20060;-95
2021/06/06 11:01:29;;;;;;;46.42;5.95;;;;;;;;;;5219338;27;20084;-94
2021/06/06 11:04:13;;;;;;;11.73;2.33;;;;;;;;;;5235334;27;20038;-93
2021/06/06 11:07:03;;;;;;;14.82;2.83;;;;;;;;;;5218741;27;20023;-93
2021/06/06 11:09:40;;;;;;;9.82;2.30;;;;;;;;;;5235377;27;20030;-93
2021/06/06 11:12:26;;;;;;;8.68;2.60;;;;;;;;;;5219502;27;20026;-94
2021/06/06 11:15:06;;;;;;;10.60;2.20;;;;;;;;;;5235848;27;20077;-96
2021/06/06 11:17:50;;;;;;;8.38;2.67;;;;;;;;;;5219108;27;20056;-94
2021/06/06 11:20:35;;;;;;;25.08;3.80;;;;;;;;;;5218824;27;20028;-95
2021/06/06 11:23:13;;;;;;;9.40;2.30;;;;;;;;;;5217052;27;20023;-94
2021/06/06 11:25:49;;;;;;;14.87;3.00;;;;;;;;;;5216689;27;20026;-92
2021/06/06 11:28:37;;;;;;;14.00;2.70;;;;;;;;;;5235835;27;20062;-92
2021/06/06 11:31:28;;;;;;;14.50;2.87;;;;;;;;;;5218259;27;20082;-93
2021/06/06 11:34:03;;;;;;;11.63;2.92;;;;;;;;;;5233847;27;20036;-93
2021/06/06 11:36:40;;;;;;;12.05;2.95;;;;;;;;;;5218348;27;20449;-93
2021/06/06 11:39:21;;;;;;;11.45;2.53;;;;;;;;;;5218770;27;20037;-94
2021/06/06 11:42:04;;;;;;;21.92;3.10;;;;;;;;;;5219913;27;20036;-94
2021/06/06 11:44:47;;;;;;;10.90;2.80;;;;;;;;;;5218807;27;20036;-96
2021/06/06 11:47:17;;;;;;;14.00;2.85;;;;;;;;;;5217620;27;20085;-94
2021/06/06 11:49:54;;;;;;;12.50;2.95;;;;;;;;;;5218668;27;20029;-94
2021/06/06 11:52:26;;;;;;;18.58;2.90;;;;;;;;;;5217958;27;20048;-94
2021/06/06 11:54:59;;;;;;;17.92;3.00;;;;;;;;;;5217514;27;20434;-95
2021/06/06 11:57:30;;;;;;;11.98;3.40;;;;;;;;;;5217190;27;20430;-93
2021/06/06 12:00:03;;;;;;;12.65;2.92;;;;;;;;;;5216545;27;20048;-94
2021/06/06 12:02:39;;;;;;;9.45;2.70;;;;;;;;;;5219097;27;20018;-95
2021/06/06 12:05:18;;;;;;;9.77;2.57;;;;;;;;;;5219293;27;20445;-94
2021/06/06 12:08:16;;;;;;;9.57;2.50;;;;;;;;;;5219310;27;20206;-93
2021/06/06 12:10:53;;;;;;;15.02;2.40;;;;;;;;;;5218220;27;20089;-93
2021/06/06 12:13:27;;;;;;;9.82;2.42;;;;;;;;;;5216661;27;20415;-94
2021/06/06 12:16:07;;;;;;;14.68;2.83;;;;;;;;;;5217452;27;20031;-96
2021/06/06 12:18:43;;;;;;;8.05;2.60;;;;;;;;;;5216969;27;20052;-94
2021/06/06 12:21:25;;;;;;;13.77;3.33;;;;;;;;;;5218791;27;20030;-93
2021/06/06 12:24:10;;;;;;;14.02;3.15;;;;;;;;;;5217279;27;20036;-94
2021/06/06 12:26:44;;;;;;;13.75;3.03;;;;;;;;;;5217481;27;20030;-93
2021/06/06 12:29:15;;;;;;;10.55;2.92;;;;;;;;;;5217001;27;20021;-94
2021/06/06 12:31:46;;;;;;;19.12;3.80;;;;;;;;;;5216735;27;20691;-92
2021/06/06 12:34:20;;;;;;;39.13;4.40;;;;;;;;;;5216621;27;20355;-94
2021/06/06 12:36:57;;;;;;;9.52;2.65;;;;;;;;;;5217547;27;20034;-95
2021/06/06 12:39:36;;;;;;;33.25;3.92;;;;;;;;;;5218465;27;20030;-93
2021/06/06 12:42:10;;;;;;;12.05;3.05;;;;;;;;;;5217826;27;20721;-94
2021/06/06 12:44:48;;;;;;;11.12;2.92;;;;;;;;;;5235563;27;20052;-95
2021/06/06 12:47:25;;;;;;;13.20;3.30;;;;;;;;;;5217224;27;20064;-94
2021/06/06 12:50:14;;;;;;;13.00;3.10;;;;;;;;;;5218407;27;20038;-93
2021/06/06 12:53:13;;;;;;;25.80;4.05;;;;;;;;;;5218202;27;20308;-94
2021/06/06 12:55:53;;;;;;;14.07;3.62;;;;;;;;;;5235886;27;20044;-93
2021/06/06 12:58:30;;;;;;;10.00;2.60;;;;;;;;;;5215927;27;20756;-95
2021/06/06 13:01:14;;;;;;;8.07;2.53;;;;;;;;;;5217492;27;20126;-93
2021/06/06 13:03:56;;;;;;;8.90;2.83;;;;;;;;;;5218538;27;20472;-94
2021/06/06 13:06:29;;;;;;;15.70;2.90;;;;;;;;;;5216030;27;20071;-94
2021/06/06 13:09:31;;;;;;;7.72;2.20;;;;;;;;;;5214336;27;20047;-92
2021/06/06 13:12:11;;;;;;;12.80;2.62;;;;;;;;;;5188501;27;20061;-92
2021/06/06 13:14:55;;;;;;;11.70;2.80;;;;;;;;;;5215393;27;20027;-92
2021/06/06 13:17:30;;;;;;;34.75;4.70;;;;;;;;;;5217875;27;20054;-95
2021/06/06 13:20:14;;;;;;;10.02;2.83;;;;;;;;;;5215626;27;20065;-93
2021/06/06 13:23:15;;;;;;;11.98;2.72;;;;;;;;;;5233202;27;20040;-95
2021/06/06 13:25:53;;;;;;;12.88;2.90;;;;;;;;;;5183133;27;20772;-92
2021/06/06 13:28:26;;;;;;;14.05;3.28;;;;;;;;;;5215616;27;20034;-93
2021/06/06 13:31:07;;;;;;;9.07;2.53;;;;;;;;;;5214195;27;20070;-96
2021/06/06 13:33:38;;;;;;;9.75;2.60;;;;;;;;;;5216238;27;20040;-96
2021/06/06 13:36:12;;;;;;;10.95;2.97;;;;;;;;;;5217414;27;20451;-96
2021/06/06 13:38:46;;;;;;;14.18;3.20;;;;;;;;;;5217218;27;20050;-96
2021/06/06 13:41:18;;;;;;;7.90;2.90;;;;;;;;;;5217844;27;20070;-94
2021/06/06 13:43:47;;;;;;;13.30;2.92;;;;;;;;;;5218510;27;20109;-94
2021/06/06 13:46:21;;;;;;;12.02;3.17;;;;;;;;;;5223112;27;20089;-96
2021/06/06 13:48:52;;;;;;;14.13;2.95;;;;;;;;;;5222502;27;20026;-95
2021/06/06 13:51:22;;;;;;;11.85;2.78;;;;;;;;;;5221387;27;20041;-96
2021/06/06 13:53:58;;;;;;;39.08;4.85;;;;;;;;;;5219564;27;20031;-96
2021/06/06 13:56:32;;;;;;;14.00;3.20;;;;;;;;;;5218989;27;20038;-96
2021/06/06 13:59:07;;;;;;;10.02;2.80;;;;;;;;;;5218915;27;20010;-96
2021/06/06 14:01:44;;;;;;;25.05;4.10;;;;;;;;;;5219320;27;20030;-96
2021/06/06 14:04:16;;;;;;;19.45;3.60;;;;;;;;;;5218484;27;20084;-96
2021/06/06 14:06:53;;;;;;;10.38;2.55;;;;;;;;;;5220170;27;20383;-96
2021/06/06 14:09:23;;;;;;;18.00;3.30;;;;;;;;;;5218000;27;20351;-96
2021/06/06 14:11:54;;;;;;;11.07;2.80;;;;;;;;;;5235191;27;20034;-95
2021/06/06 14:14:27;;;;;;;14.73;3.00;;;;;;;;;;5218117;27;20101;-96
2021/06/06 14:16:56;;;;;;;12.23;3.12;;;;;;;;;;5236707;27;20017;-96
2021/06/06 14:19:33;;;;;;;11.45;2.90;;;;;;;;;;5220511;27;20026;-96
2021/06/06 14:22:08;;;;;;;16.45;3.10;;;;;;;;;;5218772;27;20164;-95
2021/06/06 14:24:42;;;;;;;10.35;3.00;;;;;;;;;;5218160;27;20068;-96
2021/06/06 14:27:15;;;;;;;10.80;3.03;;;;;;;;;;5219076;27;20046;-96
2021/06/06 14:29:47;;;;;;;53.33;6.28;;;;;;;;;;5236804;27;20064;-95
2021/06/06 14:32:20;;;;;;;17.17;3.57;;;;;;;;;;5219332;27;20064;-96
2021/06/06 14:34:54;;;;;;;12.98;3.12;;;;;;;;;;5219389;27;20037;-96
2021/06/06 14:37:26;;;;;;;11.93;2.78;;;;;;;;;;5219921;27;20117;-95
2021/06/06 14:39:58;;;;;;;47.08;6.45;;;;;;;;;;5218727;27;20047;-96
2021/06/06 14:42:29;;;;;;;10.98;3.17;;;;;;;;;;5201611;27;20030;-95
2021/06/06 14:44:59;;;;;;;10.40;2.83;;;;;;;;;;5220749;27;20030;-96
2021/06/06 14:47:32;;;;;;;9.48;2.72;;;;;;;;;;5219299;27;20041;-96
2021/06/06 14:50:13;;;;;;;15.52;3.22;;;;;;;;;;5217603;27;20022;-94
2021/06/06 14:52:44;;;;;;;12.10;3.00;;;;;;;;;;5221187;27;20066;-96
2021/06/06 14:55:23;;;;;;;14.93;3.20;;;;;;;;;;5219809;27;20034;-96
2021/06/06 14:58:26;;;;;;;12.55;3.12;;;;;;;;;;5225646;27;20453;-95
2021/06/06 15:00:58;;;;;;;12.80;3.17;;;;;;;;;;5239484;27;20383;-96
2021/06/06 15:03:32;;;;;;;11.93;2.78;;;;;;;;;;5220902;27;20070;-96
2021/06/06 15:06:05;;;;;;;10.60;2.58;;;;;;;;;;5217852;27;20030;-96
2021/06/06 15:08:37;;;;;;;14.27;2.90;;;;;;;;;;5219297;27;20033;-96
2021/06/06 15:11:10;;;;;;;11.40;3.28;;;;;;;;;;5235847;27;20022;-96
2021/06/06 15:13:47;;;;;;;17.00;3.10;;;;;;;;;;5218885;27;20023;-95
2021/06/06 15:16:37;;;;;;;11.55;2.53;;;;;;;;;;5222216;27;20296;-96
2021/06/06 15:19:12;;;;;;;12.50;3.33;;;;;;;;;;5220322;27;20044;-96
2021/06/06 15:21:47;;;;;;;19.65;3.85;;;;;;;;;;5219514;27;20034;-95
2021/06/06 15:24:22;;;;;;;12.85;2.80;;;;;;;;;;5218417;27;20104;-96
2021/06/06 15:26:56;;;;;;;9.73;2.90;;;;;;;;;;5218917;27;20057;-96
2021/06/06 15:29:24;;;;;;;15.82;3.60;;;;;;;;;;5217863;27;20034;-96
2021/06/06 15:32:05;;;;;;;13.57;2.92;;;;;;;;;;5220530;27;20035;-95
2021/06/06 15:34:37;;;;;;;19.17;3.65;;;;;;;;;;5217921;27;20065;-96
2021/06/06 15:37:10;;;;;;;11.77;3.08;;;;;;;;;;5219408;27;20436;-94
2021/06/06 15:39:49;;;;;;;16.50;3.45;;;;;;;;;;5220623;27;20529;-96
2021/06/06 15:42:31;;;;;;;10.60;2.60;;;;;;;;;;5220001;27;20034;-95